createdAt,value
2023-11-30T00:05:07.878Z,99285.89
2023-11-30T00:20:11.602Z,99293.90
2023-11-30T00:35:29.124Z,99300.45
2023-11-30T00:50:31.754Z,99297.96
2023-11-30T01:05:34.334Z,99292.34
2023-11-30T01:20:37.143Z,99293.04
2023-11-30T01:35:39.767Z,99292.64
2023-11-30T01:50:44.529Z,99292.83
2023-11-30T02:05:47.999Z,99290.01
2023-11-30T02:20:50.605Z,99297.50
2023-11-30T02:35:53.170Z,99308.35
2023-11-30T02:50:55.750Z,99304.23
2023-11-30T03:05:58.800Z,99309.15
2023-11-30T03:21:20.705Z,99301.88
2023-11-30T03:36:23.821Z,99309.56
2023-11-30T03:51:41.014Z,99311.67
2023-11-30T04:06:58.422Z,99320.35
2023-11-30T04:37:18.666Z,99334.29
2023-11-30T04:52:21.272Z,99346.95
2023-11-30T05:07:23.831Z,99353.20
2023-11-30T05:22:41.375Z,99355.57
2023-11-30T05:37:44.014Z,99355.36
2023-11-30T05:52:46.800Z,99380.55
2023-11-30T06:07:49.365Z,99395.80
2023-11-30T06:22:51.964Z,99410.52
2023-11-30T06:38:11.027Z,99423.26
2023-11-30T06:53:29.185Z,99440.32
2023-11-30T07:08:32.157Z,99446.14
2023-11-30T07:23:35.251Z,99464.55
2023-11-30T07:38:38.539Z,99480.16
2023-11-30T07:53:55.808Z,99481.12
2023-11-30T08:08:59.145Z,99488.73
2023-11-30T08:24:02.152Z,99484.20
2023-11-30T08:39:06.528Z,99498.73
2023-11-30T09:09:28.982Z,99513.15
2023-11-30T09:24:31.801Z,99500.13
2023-11-30T09:39:34.867Z,99496.89
2023-11-30T10:25:13.581Z,99462.12
2023-11-30T10:40:18.984Z,99449.96
2023-11-30T10:55:24.275Z,99450.89
2023-11-30T11:10:37.030Z,99440.77
2023-11-30T11:25:41.914Z,99433.70
2023-11-30T11:40:45.101Z,99435.41
2023-11-30T11:55:47.887Z,99437.40
2023-11-30T12:10:52.531Z,99429.23
2023-11-30T12:25:59.332Z,99429.27
2023-11-30T12:41:02.387Z,99431.91
2023-11-30T12:56:06.533Z,99412.80
2023-11-30T13:11:10.514Z,99415.92
2023-11-30T13:26:13.367Z,99412.30
2023-11-30T13:41:16.717Z,99424.31
2023-11-30T13:56:22.290Z,99415.50
2023-11-30T14:11:46.518Z,99413.42
2023-11-30T14:26:52.267Z,99423.66
2023-11-30T14:41:58.432Z,99429.08
2023-11-30T14:57:04.598Z,99420.18
2023-11-30T15:12:08.029Z,99418.50
2023-11-30T15:27:11.420Z,99413.36
2023-11-30T15:53:23.076Z,99400.27
2023-11-30T16:08:28.475Z,99395.77
2023-11-30T16:23:37.267Z,99408.52
2023-11-30T17:09:19.266Z,99424.61
2023-11-30T17:24:23.940Z,99431.97
2023-11-30T17:39:31.357Z,99428.25
2023-11-30T17:54:40.583Z,99438.52
2023-11-30T18:09:48.771Z,99435.73
2023-11-30T18:24:53.300Z,99418.86
2023-11-30T18:39:58.034Z,99403.41
2023-11-30T18:55:04.512Z,99396.13
2023-11-30T19:10:10.976Z,99369.75
2023-11-30T19:25:15.693Z,99372.64
2023-11-30T19:40:20.119Z,99381.25
2023-11-30T19:55:26.690Z,99389.41
2023-11-30T20:10:31.607Z,99391.91
2023-11-30T20:25:36.242Z,99405.84
2023-11-30T20:40:40.744Z,99404.07
2023-11-30T20:55:46.011Z,99393.30
2023-11-30T21:26:33.462Z,99402.84
2023-11-30T21:41:51.762Z,99400.67
2023-11-30T21:56:56.463Z,99401.69
2023-11-30T22:12:04.720Z,99407.63
2023-11-30T22:27:09.684Z,99405.13
2023-11-30T22:42:14.394Z,99406.96
2023-11-30T22:57:19.236Z,99394.20
2023-11-30T23:12:23.844Z,99399.34
2023-11-30T23:27:28.379Z,99400.10
2023-11-30T23:42:32.778Z,99399.95
2023-11-30T23:57:51.452Z,99411.48
